Time;durP1;ratioP1;P1;durP2;ratioP2;P2;SDS_P1;SDS_P2;PMS_P1;PMS_P2;Temp;Humidity;BMP_temperature;BMP_pressure;BME280_temperature;BME280_humidity;BME280_pressure;Samples;Min_cycle;Max_cycle;Signal;HPM_P1;HPM_P2
2023/04/02 00:01:00;;;;;;;2.83;1.50;;;5.30;99.90;;;;;;5076538;28;20036;-72
2023/04/02 00:03:52;;;;;;;3.53;1.50;;;5.30;99.90;;;;;;5056710;28;20127;-72
2023/04/02 00:06:33;;;;;;;4.28;1.48;;;5.30;99.90;;;;;;5068058;28;20048;-72
2023/04/02 00:09:28;;;;;;;3.30;1.60;;;5.30;99.90;;;;;;5073524;28;20677;-72
2023/04/02 00:11:54;;;;;;;3.13;1.38;;;5.20;99.90;;;;;;5058471;28;20058;-72
2023/04/02 00:14:25;;;;;;;2.92;1.50;;;5.30;99.90;;;;;;5071548;28;20044;-72
2023/04/02 00:16:54;;;;;;;2.30;1.20;;;5.30;99.90;;;;;;5103110;27;20544;-72
2023/04/02 00:19:39;;;;;;;6.55;1.80;;;5.20;99.90;;;;;;5058947;28;20024;-72
2023/04/02 00:22:19;;;;;;;3.58;1.52;;;5.20;99.90;;;;;;5075337;28;20059;-72
2023/04/02 00:24:45;;;;;;;4.53;1.88;;;5.20;99.90;;;;;;5091084;28;20521;-72
2023/04/02 00:27:13;;;;;;;2.92;1.23;;;5.20;99.90;;;;;;5067868;28;20039;-72
2023/04/02 00:29:56;;;;;;;5.85;1.95;;;5.20;99.90;;;;;;5071719;28;20044;-72
2023/04/02 00:32:28;;;;;;;3.00;1.50;;;5.10;99.90;;;;;;5070349;28;20478;-72
2023/04/02 00:34:54;;;;;;;4.22;1.55;;;5.10;99.90;;;;;;5109831;27;20028;-72
2023/04/02 00:37:23;;;;;;;2.85;1.38;;;5.10;99.90;;;;;;5077967;28;20123;-72
2023/04/02 00:39:54;;;;;;;2.72;1.55;;;5.10;99.90;;;;;;5089944;28;20114;-72
2023/04/02 00:42:21;;;;;;;2.97;1.50;;;5.00;99.90;;;;;;5071187;28;20036;-72
2023/04/02 00:44:48;;;;;;;1.63;0.80;;;5.00;99.90;;;;;;5076262;28;20093;-72
2023/04/02 00:47:23;;;;;;;2.17;1.02;;;5.00;99.90;;;;;;5075809;28;20043;-72
2023/04/02 00:50:10;;;;;;;2.17;1.23;;;5.00;99.90;;;;;;5106534;27;20482;-72
2023/04/02 00:52:37;;;;;;;2.63;1.45;;;4.90;99.90;;;;;;5063176;28;20044;-72
2023/04/02 00:55:23;;;;;;;1.67;0.95;;;4.90;99.90;;;;;;5080991;28;20560;-72
2023/04/02 00:57:50;;;;;;;1.30;0.70;;;4.90;99.90;;;;;;5080118;28;20477;-72
2023/04/02 01:00:35;;;;;;;1.38;0.80;;;4.80;99.90;;;;;;5055488;28;20048;-72
2023/04/02 01:03:16;;;;;;;3.85;1.35;;;4.80;99.90;;;;;;5077946;28;20492;-72
2023/04/02 01:05:49;;;;;;;3.53;1.30;;;4.90;99.90;;;;;;5104164;27;20044;-72
2023/04/02 01:08:49;;;;;;;3.70;1.15;;;4.80;99.90;;;;;;5109983;27;20630;-72
2023/04/02 01:11:42;;;;;;;3.53;1.25;;;4.80;99.90;;;;;;5081118;28;20386;-72
2023/04/02 01:14:52;;;;;;;2.60;1.17;;;4.80;99.90;;;;;;5078686;28;20139;-72
2023/04/02 01:17:47;;;;;;;2.10;0.90;;;4.80;99.90;;;;;;5050385;28;20056;-72
2023/04/02 01:20:38;;;;;;;4.13;1.25;;;4.70;99.90;;;;;;5087907;28;20040;-72
2023/04/02 01:23:09;;;;;;;2.67;1.05;;;4.60;99.90;;;;;;5070918;28;20045;-72
2023/04/02 01:25:37;;;;;;;2.90;1.27;;;4.60;99.90;;;;;;5075104;28;20042;-72
2023/04/02 01:28:11;;;;;;;2.85;1.20;;;4.40;99.90;;;;;;5070517;28;20150;-72
2023/04/02 01:30:37;;;;;;;3.03;1.10;;;4.40;99.90;;;;;;5085701;28;20044;-72
2023/04/02 01:33:05;;;;;;;2.95;1.33;;;4.30;99.90;;;;;;5074417;28;20416;-72
2023/04/02 01:35:35;;;;;;;2.22;1.30;;;4.30;99.90;;;;;;5072460;28;20089;-72
2023/04/02 01:38:18;;;;;;;3.70;1.20;;;4.20;99.90;;;;;;5049852;28;20036;-72
2023/04/02 01:41:08;;;;;;;2.72;1.27;;;4.20;99.90;;;;;;5068690;28;20060;-72
2023/04/02 01:43:42;;;;;;;1.60;0.95;;;4.10;99.90;;;;;;5080536;28;20769;-72
2023/04/02 01:46:27;;;;;;;2.90;1.00;;;4.10;99.90;;;;;;5071013;28;20429;-72
2023/04/02 01:48:54;;;;;;;3.53;1.17;;;4.00;99.90;;;;;;5073730;28;20063;-72
2023/04/02 01:51:29;;;;;;;3.40;0.85;;;4.00;99.90;;;;;;5064907;28;22015;-72
2023/04/02 01:53:57;;;;;;;2.03;0.77;;;3.90;99.90;;;;;;5077887;28;20045;-72
2023/04/02 01:56:23;;;;;;;1.52;0.88;;;3.90;99.90;;;;;;5079106;28;20554;-72
2023/04/02 01:58:48;;;;;;;5.07;2.05;;;3.80;99.90;;;;;;5067708;28;20028;-72
2023/04/02 02:01:21;;;;;;;3.80;1.27;;;3.80;99.90;;;;;;5078397;28;20036;-72
2023/04/02 02:03:49;;;;;;;3.13;1.00;;;3.80;99.90;;;;;;5075231;28;20035;-72
2023/04/02 02:06:17;;;;;;;3.08;0.73;;;3.70;99.90;;;;;;5050554;28;20043;-72
2023/04/02 02:09:02;;;;;;;1.98;0.90;;;3.70;99.90;;;;;;5070335;28;20056;-72
2023/04/02 02:11:30;;;;;;;3.47;1.20;;;3.70;99.90;;;;;;5073858;28;20400;-72
2023/04/02 02:14:03;;;;;;;4.18;1.17;;;3.60;99.90;;;;;;5101272;27;20359;-72
2023/04/02 02:16:30;;;;;;;2.10;0.98;;;3.60;99.90;;;;;;5071250;28;20040;-72
2023/04/02 02:19:01;;;;;;;5.22;1.02;;;3.60;99.90;;;;;;5089848;28;20076;-72
2023/04/02 02:22:04;;;;;;;1.50;0.80;;;3.60;99.90;;;;;;5085376;28;20443;-72
2023/04/02 02:24:34;;;;;;;2.28;0.90;;;3.50;99.90;;;;;;5057487;28;20081;-72
2023/04/02 02:27:25;;;;;;;2.50;1.35;;;3.50;99.90;;;;;;5078814;28;20059;-72
2023/04/02 02:29:59;;;;;;;2.20;0.85;;;3.60;99.90;;;;;;5049113;28;20490;-72
2023/04/02 02:32:28;;;;;;;3.60;1.45;;;3.50;99.90;;;;;;5063909;28;20060;-72
2023/04/02 02:35:02;;;;;;;2.05;0.90;;;3.50;99.90;;;;;;5071855;28;20064;-72
2023/04/02 02:37:34;;;;;;;1.02;0.52;;;3.50;99.90;;;;;;5073159;28;20053;-72
2023/04/02 02:40:04;;;;;;;1.33;0.75;;;3.50;99.90;;;;;;5064606;28;20088;-72
2023/04/02 02:42:38;;;;;;;3.58;1.10;;;3.40;99.90;;;;;;5067780;28;20116;-72
2023/04/02 02:45:11;;;;;;;6.25;1.42;;;3.30;99.90;;;;;;5067660;28;20063;-72
2023/04/02 02:47:38;;;;;;;3.42;1.02;;;3.40;99.90;;;;;;5075931;28;20039;-72
2023/04/02 02:50:17;;;;;;;4.25;1.65;;;3.30;99.90;;;;;;5056140;28;20054;-72
2023/04/02 02:52:49;;;;;;;1.88;0.85;;;3.30;99.90;;;;;;5072293;28;20032;-72
2023/04/02 02:55:21;;;;;;;2.83;1.17;;;3.30;99.90;;;;;;5087139;28;20046;-72
2023/04/02 02:57:57;;;;;;;1.83;0.88;;;3.20;99.90;;;;;;5066549;28;20075;-72
2023/04/02 03:00:24;;;;;;;4.72;1.17;;;3.20;99.90;;;;;;5054201;28;20097;-72
2023/04/02 03:02:53;;;;;;;4.13;1.02;;;3.20;99.90;;;;;;5066019;28;20036;-72
2023/04/02 03:05:22;;;;;;;0.65;0.50;;;3.20;99.90;;;;;;5086840;28;20036;-72
2023/04/02 03:07:51;;;;;;;2.75;0.98;;;3.20;99.90;;;;;;5070282;28;20085;-72
2023/04/02 03:10:45;;;;;;;2.17;0.82;;;3.20;99.90;;;;;;5069909;28;20550;-72
2023/04/02 03:13:27;;;;;;;2.40;0.60;;;3.20;99.90;;;;;;5107005;27;20057;-72
2023/04/02 03:16:14;;;;;;;4.75;0.90;;;3.20;99.90;;;;;;5067653;28;20119;-72
2023/04/02 03:18:55;;;;;;;1.35;0.50;;;3.20;99.90;;;;;;5054270;28;20041;-72
2023/04/02 03:21:25;;;;;;;2.92;0.63;;;3.10;99.90;;;;;;5076049;28;20053;-72
2023/04/02 03:23:59;;;;;;;2.33;0.73;;;3.20;99.90;;;;;;5069482;28;20078;-72
2023/04/02 03:26:34;;;;;;;1.65;0.75;;;3.10;99.90;;;;;;5065898;28;20091;-72
2023/04/02 03:29:28;;;;;;;4.38;1.05;;;3.10;99.90;;;;;;5076005;28;20590;-72
2023/04/02 03:31:58;;;;;;;2.75;0.73;;;3.10;99.90;;;;;;5074055;28;22527;-72
2023/04/02 03:34:32;;;;;;;3.35;1.10;;;3.10;99.90;;;;;;5071103;28;20135;-72
2023/04/02 03:37:07;;;;;;;2.47;0.80;;;3.10;99.90;;;;;;5066311;28;20048;-72
2023/04/02 03:39:41;;;;;;;1.92;0.80;;;3.10;99.90;;;;;;5050673;28;20040;-72
2023/04/02 03:42:15;;;;;;;1.52;0.73;;;3.10;99.90;;;;;;5075252;28;20478;-72
2023/04/02 03:45:06;;;;;;;3.08;0.80;;;3.10;99.90;;;;;;5071291;28;20040;-72
2023/04/02 03:47:44;;;;;;;2.10;1.08;;;3.10;99.90;;;;;;5074835;28;20470;-72
2023/04/02 03:50:24;;;;;;;2.35;0.60;;;3.10;99.90;;;;;;5075492;28;20036;-72
2023/04/02 03:52:51;;;;;;;2.28;0.80;;;3.00;99.90;;;;;;5079404;28;20052;-72
2023/04/02 03:55:28;;;;;;;1.27;0.55;;;3.00;99.90;;;;;;5093147;28;20112;-72
2023/04/02 03:58:20;;;;;;;3.65;0.68;;;3.00;99.90;;;;;;5081746;28;20486;-72
2023/04/02 04:01:04;;;;;;;1.10;0.65;;;3.00;99.90;;;;;;5115996;27;20115;-72
2023/04/02 04:03:44;;;;;;;3.78;0.85;;;2.90;99.90;;;;;;5078489;28;20509;-72
2023/04/02 04:06:33;;;;;;;2.65;0.60;;;2.90;99.90;;;;;;5086902;28;20481;-72
2023/04/02 04:09:22;;;;;;;0.93;0.50;;;2.90;99.90;;;;;;5104071;27;20116;-72
2023/04/02 04:11:52;;;;;;;3.97;0.70;;;2.90;99.90;;;;;;5076869;28;20091;-72
2023/04/02 04:14:33;;;;;;;1.88;0.70;;;2.90;99.90;;;;;;5060929;28;20049;-72
2023/04/02 04:17:14;;;;;;;1.40;0.70;;;2.80;99.90;;;;;;5067981;28;20119;-72
2023/04/02 04:19:50;;;;;;;1.05;0.52;;;2.90;99.90;;;;;;5076385;28;20076;-72
2023/04/02 04:22:29;;;;;;;1.20;0.52;;;2.90;99.90;;;;;;5091408;28;20607;-72
2023/04/02 04:24:59;;;;;;;5.35;0.60;;;2.80;99.90;;;;;;5073906;28;20509;-72
2023/04/02 04:27:57;;;;;;;1.92;0.60;;;2.80;99.90;;;;;;5071929;28;20091;-72
2023/04/02 04:30:41;;;;;;;2.60;0.63;;;2.80;99.90;;;;;;5088132;28;20036;-72
2023/04/02 04:33:24;;;;;;;2.45;0.45;;;2.70;99.90;;;;;;5077551;28;20072;-72
2023/04/02 04:35:58;;;;;;;1.05;0.43;;;2.70;99.90;;;;;;5075676;28;20092;-72
2023/04/02 04:38:43;;;;;;;1.05;0.43;;;2.70;99.90;;;;;;5072387;28;20706;-72
2023/04/02 04:41:12;;;;;;;2.65;0.50;;;2.70;99.90;;;;;;5074733;28;20098;-72
2023/04/02 04:43:44;;;;;;;0.75;0.30;;;2.60;99.90;;;;;;5074826;28;20486;-72
2023/04/02 04:46:16;;;;;;;0.47;0.20;;;2.60;99.90;;;;;;5074049;28;20044;-72
2023/04/02 04:48:54;;;;;;;1.80;0.57;;;2.50;99.90;;;;;;5059182;28;20039;-72
2023/04/02 04:51:30;;;;;;;2.88;0.40;;;2.50;99.90;;;;;;5070864;28;20487;-72
2023/04/02 04:53:56;;;;;;;0.77;0.32;;;2.60;99.90;;;;;;5073041;28;20084;-72
2023/04/02 04:56:26;;;;;;;3.55;0.63;;;2.50;99.90;;;;;;5072810;28;20044;-72
2023/04/02 04:59:01;;;;;;;6.22;0.70;;;2.60;99.90;;;;;;5077256;28;20043;-72
2023/04/02 05:01:41;;;;;;;1.65;0.60;;;2.50;99.90;;;;;;5072549;28;20036;-72
2023/04/02 05:04:23;;;;;;;1.17;0.32;;;2.50;99.90;;;;;;5089765;28;20040;-72
2023/04/02 05:07:00;;;;;;;1.92;0.68;;;2.50;99.90;;;;;;5088560;28;20032;-72
2023/04/02 05:09:37;;;;;;;0.45;0.20;;;2.50;99.90;;;;;;5072473;28;20040;-72
2023/04/02 05:12:22;;;;;;;1.70;0.65;;;2.50;99.90;;;;;;5070453;28;20063;-72
2023/04/02 05:14:57;;;;;;;3.60;0.98;;;2.40;99.90;;;;;;5069993;28;20074;-72
2023/04/02 05:17:30;;;;;;;0.52;0.30;;;2.40;99.90;;;;;;5071246;28;20044;-72
2023/04/02 05:20:15;;;;;;;1.88;0.38;;;2.40;99.90;;;;;;5070072;28;20040;-72
2023/04/02 05:23:10;;;;;;;1.20;0.40;;;2.40;99.90;;;;;;5094358;27;20059;-72
2023/04/02 05:25:48;;;;;;;2.17;0.45;;;2.30;99.90;;;;;;5063259;28;20108;-72
2023/04/02 05:28:20;;;;;;;1.77;0.70;;;2.30;99.90;;;;;;5058467;28;20047;-72
2023/04/02 05:30:54;;;;;;;2.88;0.80;;;2.30;99.90;;;;;;5071888;28;20313;-72
2023/04/02 05:33:30;;;;;;;2.35;0.85;;;2.30;99.90;;;;;;5073096;28;20573;-72
2023/04/02 05:36:10;;;;;;;2.10;0.63;;;2.30;99.90;;;;;;5075688;28;20036;-72
2023/04/02 05:38:38;;;;;;;1.25;0.43;;;2.30;99.90;;;;;;5070462;28;20091;-72
2023/04/02 05:41:19;;;;;;;4.78;0.82;;;2.30;99.90;;;;;;5075573;28;20512;-72
2023/04/02 05:43:47;;;;;;;1.20;0.30;;;2.20;99.90;;;;;;5069952;28;20490;-72
2023/04/02 05:46:16;;;;;;;2.65;0.60;;;2.20;99.90;;;;;;5078591;28;20048;-72
2023/04/02 05:48:47;;;;;;;3.58;0.30;;;2.30;99.90;;;;;;5070716;28;20032;-72
2023/04/02 05:51:20;;;;;;;1.90;0.70;;;2.20;99.90;;;;;;5052471;28;20029;-72
2023/04/02 05:53:56;;;;;;;1.33;0.57;;;2.30;99.90;;;;;;5057960;28;20071;-73
2023/04/02 05:56:21;;;;;;;2.17;0.90;;;2.30;99.90;;;;;;5057390;28;20068;-72
2023/04/02 05:59:09;;;;;;;2.10;0.82;;;2.30;99.90;;;;;;5060957;28;20098;-72
2023/04/02 06:02:05;;;;;;;2.42;0.85;;;2.40;99.90;;;;;;5105326;27;20036;-72
2023/04/02 06:04:47;;;;;;;3.10;0.63;;;2.40;99.90;;;;;;5061832;28;20081;-72
2023/04/02 06:07:19;;;;;;;8.75;1.35;;;2.40;99.90;;;;;;5075792;28;20032;-72
2023/04/02 06:10:10;;;;;;;3.85;0.60;;;2.40;99.90;;;;;;5074770;28;20038;-72
2023/04/02 06:12:47;;;;;;;1.40;0.38;;;2.40;99.90;;;;;;5072792;28;20093;-72
2023/04/02 06:15:15;;;;;;;2.60;0.28;;;2.40;99.90;;;;;;5059055;28;20040;-72
2023/04/02 06:18:10;;;;;;;1.08;0.47;;;2.40;99.90;;;;;;5065936;28;20367;-72
2023/04/02 06:20:35;;;;;;;0.95;0.30;;;2.40;99.90;;;;;;5063194;28;20056;-72
2023/04/02 06:23:06;;;;;;;4.28;0.65;;;2.40;99.90;;;;;;5075526;28;20040;-72
2023/04/02 06:25:48;;;;;;;1.23;0.45;;;2.50;99.90;;;;;;5071700;28;20485;-72
2023/04/02 06:28:23;;;;;;;1.55;0.35;;;2.50;99.90;;;;;;5073491;28;20205;-72
2023/04/02 06:30:52;;;;;;;1.08;0.40;;;2.50;99.90;;;;;;5073613;28;20092;-73
2023/04/02 06:33:18;;;;;;;0.70;0.38;;;2.60;99.90;;;;;;5073353;28;20125;-72
2023/04/02 06:35:46;;;;;;;1.88;0.40;;;2.60;99.90;;;;;;5101445;27;20037;-73
2023/04/02 06:38:21;;;;;;;0.90;0.40;;;2.60;99.90;;;;;;5058813;28;20041;-72
2023/04/02 06:40:57;;;;;;;1.98;0.52;;;2.70;99.90;;;;;;5050070;28;20068;-73
2023/04/02 06:43:37;;;;;;;1.35;0.50;;;2.70;99.90;;;;;;5076199;28;20135;-72
2023/04/02 06:46:13;;;;;;;0.70;0.38;;;2.70;99.90;;;;;;5070657;28;20481;-72
2023/04/02 06:48:40;;;;;;;1.88;0.63;;;2.80;99.90;;;;;;5065076;28;20521;-72
2023/04/02 06:51:10;;;;;;;0.85;0.30;;;2.80;99.90;;;;;;5086541;28;20039;-72
2023/04/02 06:53:39;;;;;;;1.27;0.50;;;2.80;99.90;;;;;;5071259;28;20300;-72
2023/04/02 06:56:19;;;;;;;2.47;0.75;;;2.80;99.90;;;;;;5071684;28;20096;-73
2023/04/02 06:58:45;;;;;;;0.88;0.32;;;2.90;99.90;;;;;;5054050;28;20036;-72
2023/04/02 07:01:17;;;;;;;2.10;0.30;;;2.90;99.90;;;;;;5066762;28;20506;-72
2023/04/02 07:03:42;;;;;;;2.13;0.20;;;2.90;99.90;;;;;;5070369;28;20040;-72
2023/04/02 07:06:15;;;;;;;0.47;0.28;;;3.00;99.90;;;;;;5100938;27;20047;-72
2023/04/02 07:08:41;;;;;;;0.75;0.35;;;3.00;99.90;;;;;;5066189;28;20040;-71
2023/04/02 07:11:06;;;;;;;2.05;0.30;;;3.10;99.90;;;;;;5083577;28;20058;-72
2023/04/02 07:13:32;;;;;;;1.65;0.80;;;3.10;99.90;;;;;;5064352;28;20063;-72
2023/04/02 07:15:57;;;;;;;0.38;0.20;;;3.10;99.90;;;;;;5071207;28;20039;-72
2023/04/02 07:18:29;;;;;;;1.45;0.30;;;3.20;99.90;;;;;;5062038;28;20123;-72
2023/04/02 07:20:55;;;;;;;3.90;1.20;;;3.20;99.90;;;;;;5054998;28;20036;-72
2023/04/02 07:23:21;;;;;;;1.10;0.40;;;3.20;99.90;;;;;;5072719;28;20051;-72
2023/04/02 07:25:49;;;;;;;1.60;0.47;;;3.30;99.90;;;;;;5074123;28;20397;-72
2023/04/02 07:28:15;;;;;;;1.17;0.40;;;3.30;99.90;;;;;;5068436;28;20048;-72
2023/04/02 07:30:41;;;;;;;6.00;0.47;;;3.30;99.90;;;;;;5100293;28;20039;-72
2023/04/02 07:33:11;;;;;;;0.75;0.38;;;3.40;99.90;;;;;;5069008;28;20409;-72
2023/04/02 07:35:36;;;;;;;0.47;0.25;;;3.40;99.90;;;;;;5065999;28;20039;-72
2023/04/02 07:38:02;;;;;;;1.58;0.32;;;3.40;99.90;;;;;;5053800;28;20041;-72
2023/04/02 07:40:28;;;;;;;1.83;0.40;;;3.50;99.90;;;;;;5099166;28;20470;-72
2023/04/02 07:42:53;;;;;;;1.02;0.30;;;3.50;99.90;;;;;;5070367;28;20090;-72
2023/04/02 07:45:19;;;;;;;0.28;0.22;;;3.50;99.90;;;;;;5075783;28;20044;-72
2023/04/02 07:47:44;;;;;;;4.07;0.50;;;3.50;99.90;;;;;;5074608;28;20086;-73
2023/04/02 07:50:10;;;;;;;1.15;0.47;;;3.60;99.90;;;;;;5069775;28;20043;-72
2023/04/02 07:52:42;;;;;;;3.10;0.45;;;3.60;99.90;;;;;;5068478;28;20047;-72
2023/04/02 07:55:12;;;;;;;1.52;0.57;;;3.70;99.90;;;;;;5077239;28;20075;-72
2023/04/02 07:57:40;;;;;;;1.27;0.43;;;3.70;99.90;;;;;;5057854;28;20044;-72
2023/04/02 08:00:10;;;;;;;1.00;0.30;;;3.80;99.90;;;;;;5070648;28;20436;-72
2023/04/02 08:02:36;;;;;;;1.30;0.30;;;3.80;99.90;;;;;;5101619;28;20048;-72
2023/04/02 08:05:01;;;;;;;1.15;0.35;;;3.80;99.90;;;;;;5054982;28;20050;-72
2023/04/02 08:07:27;;;;;;;1.52;0.50;;;3.80;99.90;;;;;;5070833;28;20375;-72
2023/04/02 08:09:53;;;;;;;2.30;0.47;;;3.80;99.90;;;;;;5082920;28;20393;-72
2023/04/02 08:12:18;;;;;;;0.95;0.50;;;3.90;99.90;;;;;;5067579;28;20118;-72
2023/04/02 08:14:44;;;;;;;0.20;0.20;;;4.00;99.90;;;;;;5063722;28;20044;-72
2023/04/02 08:17:10;;;;;;;2.08;0.30;;;4.00;99.90;;;;;;5072077;28;20032;-72
2023/04/02 08:19:36;;;;;;;2.35;0.60;;;4.10;99.90;;;;;;5064994;28;20032;-72
2023/04/02 08:22:01;;;;;;;1.35;0.32;;;4.10;99.90;;;;;;5068029;28;20044;-72
2023/04/02 08:24:27;;;;;;;1.48;0.50;;;4.10;99.90;;;;;;5053918;28;20055;-72
2023/04/02 08:26:53;;;;;;;1.95;0.60;;;4.10;99.90;;;;;;5074055;28;20062;-72
2023/04/02 08:29:19;;;;;;;1.27;0.50;;;4.20;99.90;;;;;;5054727;28;20035;-73
2023/04/02 08:31:45;;;;;;;1.35;0.57;;;4.20;99.90;;;;;;5072913;28;21029;-72
2023/04/02 08:34:11;;;;;;;0.52;0.17;;;4.20;99.90;;;;;;5076465;28;20058;-72
2023/04/02 08:36:40;;;;;;;0.75;0.40;;;4.20;99.90;;;;;;5064450;28;20109;-72
2023/04/02 08:39:12;;;;;;;0.43;0.22;;;4.20;99.90;;;;;;5090877;28;20032;-72
2023/04/02 08:41:46;;;;;;;3.13;0.60;;;4.20;99.90;;;;;;5056889;28;20043;-72
2023/04/02 08:44:35;;;;;;;0.93;0.40;;;4.20;99.90;;;;;;5105715;27;20043;-72
2023/04/02 08:47:08;;;;;;;0.52;0.40;;;4.20;99.90;;;;;;5058346;28;20074;-72
2023/04/02 08:49:47;;;;;;;0.43;0.25;;;4.20;99.90;;;;;;5074196;28;20063;-72
2023/04/02 08:52:20;;;;;;;0.75;0.35;;;4.30;99.90;;;;;;5057059;28;20315;-72
2023/04/02 08:54:46;;;;;;;1.17;0.45;;;4.30;99.90;;;;;;5073560;28;20090;-72
2023/04/02 08:57:36;;;;;;;2.63;0.30;;;4.40;99.90;;;;;;5076688;28;20044;-73
2023/04/02 09:00:14;;;;;;;1.80;0.38;;;4.40;99.90;;;;;;5072043;28;20676;-72
2023/04/02 09:02:59;;;;;;;3.30;0.63;;;4.40;99.90;;;;;;5092269;27;20044;-72
2023/04/02 09:05:39;;;;;;;3.20;0.45;;;4.40;99.90;;;;;;5073601;28;20072;-72
2023/04/02 09:08:17;;;;;;;1.75;0.93;;;4.40;99.90;;;;;;5079196;28;20028;-72
2023/04/02 09:10:53;;;;;;;1.13;0.50;;;4.30;99.90;;;;;;5059510;28;20051;-72
2023/04/02 09:13:26;;;;;;;0.65;0.30;;;4.30;99.90;;;;;;5076334;28;20520;-72
2023/04/02 09:16:16;;;;;;;0.55;0.30;;;4.40;99.90;;;;;;5098535;27;20056;-72
2023/04/02 09:18:43;;;;;;;0.50;0.22;;;4.50;99.90;;;;;;5069599;28;20301;-72
2023/04/02 09:21:40;;;;;;;2.78;0.22;;;4.50;99.90;;;;;;5054194;28;20093;-72
2023/04/02 09:24:11;;;;;;;1.30;0.70;;;4.60;99.90;;;;;;5068185;28;20032;-72
2023/04/02 09:26:36;;;;;;;0.88;0.50;;;4.60;99.90;;;;;;5102191;27;20682;-72
2023/04/02 09:29:11;;;;;;;2.45;0.25;;;4.60;99.90;;;;;;5084052;28;20043;-72
2023/04/02 09:31:42;;;;;;;1.38;0.32;;;4.70;99.90;;;;;;5085404;27;20028;-72
2023/04/02 09:34:32;;;;;;;1.05;0.30;;;4.70;99.90;;;;;;5068279;28;20327;-72
2023/04/02 09:37:17;;;;;;;1.70;0.68;;;4.70;99.90;;;;;;5067935;28;20497;-72
2023/04/02 09:39:43;;;;;;;0.90;0.35;;;4.80;99.90;;;;;;5061346;28;20032;-72
2023/04/02 09:42:33;;;;;;;0.20;0.20;;;4.80;99.90;;;;;;5067842;28;20050;-72
2023/04/02 09:45:35;;;;;;;0.70;0.30;;;4.90;99.90;;;;;;5098148;27;21160;-72
2023/04/02 09:48:01;;;;;;;1.02;0.40;;;5.00;99.90;;;;;;5067908;28;20127;-72
2023/04/02 09:50:31;;;;;;;0.63;0.28;;;5.00;99.90;;;;;;5061843;28;20182;-72
2023/04/02 09:52:57;;;;;;;1.13;0.35;;;5.10;99.90;;;;;;5063534;28;20051;-72
2023/04/02 09:55:29;;;;;;;1.27;0.35;;;5.10;99.90;;;;;;5077456;28;20478;-72
2023/04/02 09:58:15;;;;;;;0.85;0.50;;;5.10;99.90;;;;;;5071902;28;20040;-72
2023/04/02 10:00:51;;;;;;;1.33;0.45;;;5.20;99.90;;;;;;5076240;28;20490;-73
2023/04/02 10:03:25;;;;;;;2.28;0.50;;;5.20;99.90;;;;;;5077662;28;20036;-73
2023/04/02 10:06:23;;;;;;;0.70;0.50;;;5.30;99.90;;;;;;5079327;28;20036;-73
2023/04/02 10:08:50;;;;;;;0.75;0.20;;;5.40;99.90;;;;;;5057470;28;20508;-73
2023/04/02 10:11:33;;;;;;;1.20;0.40;;;5.40;99.90;;;;;;5059857;28;20059;-72
2023/04/02 10:14:12;;;;;;;0.85;0.20;;;5.50;99.90;;;;;;5096157;27;20052;-72
2023/04/02 10:16:44;;;;;;;1.30;0.43;;;5.50;99.90;;;;;;5053243;28;20042;-72
2023/04/02 10:19:23;;;;;;;0.43;0.20;;;5.60;99.90;;;;;;5068163;28;20088;-72
2023/04/02 10:21:51;;;;;;;0.63;0.28;;;5.60;99.90;;;;;;5071614;28;20101;-72
2023/04/02 10:24:17;;;;;;;0.90;0.30;;;5.60;99.90;;;;;;5056436;28;20043;-73
2023/04/02 10:27:10;;;;;;;0.50;0.28;;;5.70;99.90;;;;;;5052234;28;20035;-73
2023/04/02 10:29:38;;;;;;;0.77;0.25;;;5.70;99.90;;;;;;5089721;28;20114;-72
2023/04/02 10:32:07;;;;;;;1.75;0.30;;;5.70;99.90;;;;;;5071431;28;20123;-73
2023/04/02 10:35:06;;;;;;;0.82;0.20;;;5.70;99.90;;;;;;5054021;28;20086;-73
2023/04/02 10:37:53;;;;;;;1.08;0.40;;;5.70;99.90;;;;;;5073572;28;20422;-72
2023/04/02 10:40:48;;;;;;;1.00;0.40;;;5.80;99.90;;;;;;5072510;28;20418;-73
2023/04/02 10:43:35;;;;;;;3.65;0.98;;;5.80;99.90;;;;;;5053560;28;20040;-72
2023/04/02 10:46:03;;;;;;;3.72;0.47;;;5.90;99.90;;;;;;5071046;28;20606;-73
2023/04/02 10:48:45;;;;;;;0.57;0.40;;;5.90;99.90;;;;;;5066528;28;20089;-73
2023/04/02 10:51:32;;;;;;;0.77;0.20;;;6.00;99.90;;;;;;5067815;28;20120;-73
2023/04/02 10:54:20;;;;;;;0.77;0.40;;;6.10;99.90;;;;;;5054951;28;20039;-73
2023/04/02 10:56:48;;;;;;;0.50;0.28;;;6.10;99.90;;;;;;5078897;28;20040;-73
2023/04/02 10:59:17;;;;;;;0.65;0.38;;;6.10;99.90;;;;;;5069906;28;20029;-73
2023/04/02 11:01:47;;;;;;;0.93;0.30;;;6.10;99.90;;;;;;5082803;28;20040;-72
2023/04/02 11:04:40;;;;;;;1.05;0.30;;;6.20;99.90;;;;;;5056215;28;20072;-73
2023/04/02 11:07:13;;;;;;;2.95;0.40;;;6.20;99.90;;;;;;5072587;28;20048;-72
2023/04/02 11:09:42;;;;;;;2.28;0.82;;;6.20;99.90;;;;;;5075565;28;20040;-72
2023/04/02 11:12:23;;;;;;;1.70;0.50;;;6.30;99.90;;;;;;5054190;28;20470;-73
2023/04/02 11:14:50;;;;;;;0.80;0.38;;;6.40;99.90;;;;;;5072837;28;20128;-73
2023/04/02 11:17:17;;;;;;;2.28;0.70;;;6.50;99.90;;;;;;5072930;28;20048;-72
2023/04/02 11:19:43;;;;;;;2.17;0.47;;;6.50;99.90;;;;;;5053304;28;20040;-73
2023/04/02 11:22:24;;;;;;;2.63;0.40;;;6.50;99.90;;;;;;5072890;28;20094;-72
2023/04/02 11:24:52;;;;;;;0.77;0.50;;;6.60;99.90;;;;;;5046910;28;20059;-73
2023/04/02 11:27:20;;;;;;;1.05;0.40;;;6.60;99.90;;;;;;5051101;28;20036;-73
2023/04/02 11:29:50;;;;;;;0.80;0.25;;;6.60;99.90;;;;;;5071210;28;20043;-73
2023/04/02 11:32:26;;;;;;;2.22;0.38;;;6.70;99.90;;;;;;5067853;28;20043;-75
2023/04/02 11:34:54;;;;;;;0.93;0.50;;;6.70;99.90;;;;;;5040375;28;20041;-73
2023/04/02 11:37:30;;;;;;;3.42;0.40;;;6.70;99.90;;;;;;5066841;28;20043;-73
2023/04/02 11:39:58;;;;;;;0.85;0.43;;;6.70;99.90;;;;;;5067742;28;20667;-73
2023/04/02 11:42:26;;;;;;;0.63;0.22;;;6.70;99.90;;;;;;5066593;28;20098;-73
2023/04/02 11:44:53;;;;;;;0.63;0.30;;;6.70;99.90;;;;;;5072967;28;20048;-73
2023/04/02 11:47:26;;;;;;;2.45;0.65;;;6.80;99.90;;;;;;5069323;28;20028;-73
2023/04/02 11:50:00;;;;;;;0.52;0.25;;;6.80;99.90;;;;;;5099165;28;20082;-72
2023/04/02 11:52:27;;;;;;;0.70;0.40;;;6.80;99.90;;;;;;5068743;28;20128;-73
2023/04/02 11:55:23;;;;;;;1.55;0.20;;;6.90;99.90;;;;;;5084633;28;20044;-73
2023/04/02 11:58:03;;;;;;;0.65;0.32;;;6.90;99.90;;;;;;5060108;28;20809;-73
2023/04/02 12:01:06;;;;;;;1.90;0.40;;;6.90;99.90;;;;;;5055714;28;20482;-73
2023/04/02 12:04:11;;;;;;;0.68;0.43;;;6.90;99.90;;;;;;5072389;28;20075;-73
2023/04/02 12:06:47;;;;;;;2.95;0.40;;;6.90;99.90;;;;;;4980849;28;20507;-73
2023/04/02 12:09:26;;;;;;;0.47;0.17;;;7.00;99.90;;;;;;5017416;28;20084;-73
2023/04/02 12:11:55;;;;;;;0.90;0.50;;;7.00;99.90;;;;;;5069749;27;20054;-73
2023/04/02 12:14:45;;;;;;;1.55;0.35;;;7.00;99.90;;;;;;5075615;28;22614;-73
2023/04/02 12:17:27;;;;;;;1.05;0.30;;;7.00;99.90;;;;;;5060205;28;20036;-73
2023/04/02 12:19:55;;;;;;;0.32;0.30;;;7.00;99.90;;;;;;5072989;28;20124;-73
2023/04/02 12:22:26;;;;;;;1.27;0.20;;;7.00;99.90;;;;;;5065511;28;20128;-73
2023/04/02 12:24:55;;;;;;;1.02;0.30;;;7.00;99.90;;;;;;5088951;28;20089;-73
2023/04/02 12:27:26;;;;;;;1.50;0.35;;;7.10;99.90;;;;;;5069908;28;20036;-73
2023/04/02 12:30:09;;;;;;;0.55;0.30;;;7.20;99.90;;;;;;5073355;28;20043;-73
2023/04/02 12:32:34;;;;;;;1.35;0.50;;;7.20;99.90;;;;;;5072706;28;20036;-73
2023/04/02 12:35:02;;;;;;;0.82;0.70;;;7.30;99.90;;;;;;5075044;28;20074;-73
2023/04/02 12:37:29;;;;;;;0.75;0.40;;;7.30;99.90;;;;;;5068754;28;20485;-72
2023/04/02 12:40:04;;;;;;;1.88;0.40;;;7.40;99.90;;;;;;5077937;28;20050;-73
2023/04/02 12:42:34;;;;;;;0.57;0.30;;;7.40;99.90;;;;;;5089195;27;20048;-72
2023/04/02 12:45:01;;;;;;;0.47;0.25;;;7.40;99.90;;;;;;5075881;28;20726;-73
2023/04/02 12:47:27;;;;;;;1.48;0.40;;;7.40;99.90;;;;;;5067029;28;20285;-73
2023/04/02 12:49:55;;;;;;;3.25;0.47;;;7.40;99.90;;;;;;5069446;28;20028;-72
2023/04/02 12:52:27;;;;;;;0.70;0.20;;;7.30;99.90;;;;;;5054695;28;20032;-73
2023/04/02 12:54:58;;;;;;;0.73;0.30;;;7.40;99.90;;;;;;5094562;27;20066;-73
2023/04/02 12:57:30;;;;;;;1.40;0.40;;;7.30;99.90;;;;;;5074946;28;20043;-73
2023/04/02 13:00:23;;;;;;;0.43;0.35;;;7.40;99.90;;;;;;5052752;28;20055;-73
2023/04/02 13:02:51;;;;;;;1.02;0.30;;;7.40;99.90;;;;;;5047094;28;20058;-73
2023/04/02 13:05:40;;;;;;;2.00;0.40;;;7.50;99.90;;;;;;5070727;28;20040;-73
2023/04/02 13:08:05;;;;;;;2.58;0.40;;;7.50;99.90;;;;;;5099014;27;20246;-73
2023/04/02 13:10:31;;;;;;;1.88;0.50;;;7.50;99.90;;;;;;5068916;28;20642;-73
2023/04/02 13:13:00;;;;;;;1.42;0.50;;;7.60;99.90;;;;;;5088546;28;20166;-73
2023/04/02 13:15:31;;;;;;;2.17;0.28;;;7.40;99.90;;;;;;5059497;28;20044;-73
2023/04/02 13:18:03;;;;;;;0.88;0.30;;;7.40;99.90;;;;;;5103040;27;20496;-73
2023/04/02 13:20:41;;;;;;;1.02;0.35;;;7.40;99.90;;;;;;5062659;28;20041;-73
2023/04/02 13:23:28;;;;;;;2.67;0.60;;;7.50;99.90;;;;;;5069224;28;20049;-73
2023/04/02 13:25:59;;;;;;;1.17;0.30;;;7.50;99.90;;;;;;5072518;28;20496;-73
2023/04/02 13:28:24;;;;;;;0.38;0.20;;;7.50;99.90;;;;;;5067807;28;20482;-73
2023/04/02 13:30:50;;;;;;;0.77;0.30;;;7.50;99.90;;;;;;5054569;28;20089;-73
2023/04/02 13:33:17;;;;;;;1.65;0.95;;;7.50;99.90;;;;;;5051726;28;20041;-73
2023/04/02 13:35:43;;;;;;;1.30;0.50;;;7.50;99.90;;;;;;5069324;28;20047;-73
2023/04/02 13:38:09;;;;;;;1.25;0.30;;;7.60;99.90;;;;;;5089860;28;20078;-73